createdAt,value
2019-05-29T00:00:42.716Z,94.83
2019-05-29T00:03:18.767Z,94.83
2019-05-29T00:05:54.936Z,94.64
2019-05-29T00:08:30.962Z,95.23
2019-05-29T00:11:07.967Z,95.25
2019-05-29T00:13:44.109Z,95.61
2019-05-29T00:16:20.134Z,95.22
2019-05-29T00:18:58.258Z,95.10
2019-05-29T00:21:34.047Z,95.21
2019-05-29T00:24:10.393Z,95.31
2019-05-29T00:26:46.661Z,94.59
2019-05-29T00:29:22.911Z,94.66
2019-05-29T00:31:58.965Z,94.97
2019-05-29T00:34:35.440Z,95.05
2019-05-29T00:37:12.496Z,94.65
2019-05-29T00:39:48.689Z,94.77
2019-05-29T00:42:24.736Z,94.91
2019-05-29T00:45:00.961Z,94.82
2019-05-29T00:47:37.988Z,94.89
2019-05-29T00:50:14.269Z,94.23
2019-05-29T00:52:50.408Z,94.23
2019-05-29T00:55:26.465Z,94.34
2019-05-29T00:58:02.455Z,94.47
2019-05-29T01:00:39.401Z,94.49
2019-05-29T01:03:15.965Z,94.43
2019-05-29T01:05:52.361Z,94.08
2019-05-29T01:08:28.304Z,94.15
2019-05-29T01:11:04.300Z,93.93
2019-05-29T01:13:40.510Z,93.96
2019-05-29T01:16:17.465Z,93.81
2019-05-29T01:18:55.306Z,93.36
2019-05-29T01:21:31.671Z,93.66
2019-05-29T01:24:07.834Z,93.62
2019-05-29T01:26:43.812Z,93.42
2019-05-29T01:29:20.927Z,93.26
2019-05-29T01:31:57.232Z,93.16
2019-05-29T01:34:33.195Z,93.28
2019-05-29T01:37:09.701Z,93.45
2019-05-29T01:39:45.825Z,93.28
2019-05-29T01:42:22.078Z,93.55
2019-05-29T01:45:07.643Z,93.49
2019-05-29T01:47:35.845Z,93.34
2019-05-29T01:50:12.124Z,92.76
2019-05-29T01:52:48.354Z,93.05
2019-05-29T01:55:24.326Z,92.89
2019-05-29T01:58:00.698Z,92.08
2019-05-29T02:00:36.755Z,92.31
2019-05-29T02:03:12.806Z,92.16
2019-05-29T02:05:48.865Z,91.96
2019-05-29T02:08:24.990Z,91.82
2019-05-29T02:11:00.984Z,91.74
2019-05-29T02:13:37.348Z,91.53
2019-05-29T02:16:14.117Z,91.14
2019-05-29T02:18:50.192Z,91.43
2019-05-29T02:21:26.351Z,91.20
2019-05-29T02:24:02.257Z,91.68
2019-05-29T02:26:38.252Z,91.65
2019-05-29T02:29:14.640Z,91.24
2019-05-29T02:31:50.673Z,91.46
2019-05-29T02:34:29.998Z,91.63
2019-05-29T02:37:06.185Z,91.42
2019-05-29T02:39:42.234Z,91.10
2019-05-29T02:42:20.858Z,91.29
2019-05-29T02:44:57.048Z,91.07
2019-05-29T02:47:33.281Z,91.25
2019-05-29T02:50:09.756Z,91.20
2019-05-29T02:52:45.925Z,91.41
2019-05-29T02:55:22.611Z,91.50
2019-05-29T02:57:59.158Z,91.18
2019-05-29T03:00:52.952Z,91.26
2019-05-29T03:03:33.188Z,91.42
2019-05-29T03:06:08.107Z,90.65
2019-05-29T03:08:44.275Z,90.38
2019-05-29T03:11:20.333Z,90.81
2019-05-29T03:13:56.388Z,90.81
2019-05-29T03:16:34.682Z,90.83
2019-05-29T03:19:10.303Z,90.50
2019-05-29T03:21:47.038Z,90.60
2019-05-29T03:24:24.511Z,90.64
2019-05-29T03:27:00.421Z,90.38
2019-05-29T03:29:38.540Z,90.56
2019-05-29T03:32:14.885Z,90.36
2019-05-29T03:34:50.903Z,90.52
2019-05-29T03:37:28.223Z,90.47
2019-05-29T03:40:06.821Z,90.38
2019-05-29T03:42:42.808Z,90.73
2019-05-29T03:45:18.721Z,89.62
2019-05-29T03:47:54.657Z,89.71
2019-05-29T03:50:32.490Z,89.55
2019-05-29T03:53:08.369Z,89.81
2019-05-29T03:55:45.426Z,89.48
2019-05-29T03:58:21.384Z,89.52
2019-05-29T04:00:57.850Z,89.42
2019-05-29T04:03:35.389Z,89.16
2019-05-29T04:06:11.565Z,89.08
2019-05-29T04:08:47.671Z,89.48
2019-05-29T04:11:24.629Z,89.10
2019-05-29T04:14:00.529Z,89.20
2019-05-29T04:19:15.858Z,89.50
2019-05-29T04:21:54.757Z,89.34
2019-05-29T04:24:33.983Z,89.31
2019-05-29T04:27:13.943Z,89.38
2019-05-29T04:29:50.753Z,88.87
2019-05-29T04:32:28.102Z,88.78
2019-05-29T04:35:04.555Z,88.70
2019-05-29T04:37:40.534Z,88.26
2019-05-29T04:40:16.744Z,88.05
2019-05-29T04:42:52.675Z,88.04
2019-05-29T04:45:29.020Z,88.00
2019-05-29T04:48:05.456Z,88.23
2019-05-29T04:50:41.445Z,88.32
2019-05-29T04:53:17.498Z,88.18
2019-05-29T04:55:53.509Z,87.99
2019-05-29T04:58:29.411Z,88.28
2019-05-29T05:01:05.347Z,88.53
2019-05-29T05:03:41.381Z,88.20
2019-05-29T05:06:17.389Z,88.37
2019-05-29T05:08:53.396Z,88.32
2019-05-29T05:11:29.485Z,87.87
2019-05-29T05:14:06.480Z,87.81
2019-05-29T05:16:42.492Z,87.79
2019-05-29T05:19:18.871Z,87.85
2019-05-29T05:21:55.935Z,88.13
2019-05-29T05:24:32.190Z,87.33
2019-05-29T05:27:08.677Z,87.69
2019-05-29T05:29:44.760Z,87.11
2019-05-29T05:32:20.902Z,86.91
2019-05-29T05:34:57.260Z,86.62
2019-05-29T05:37:34.769Z,86.52
2019-05-29T05:40:11.642Z,86.37
2019-05-29T05:42:47.797Z,85.68
2019-05-29T05:45:24.974Z,85.03
2019-05-29T05:48:01.091Z,84.87
2019-05-29T05:50:37.373Z,85.35
2019-05-29T05:53:14.475Z,85.08
2019-05-29T05:55:50.447Z,85.75
2019-05-29T05:58:26.387Z,85.52
2019-05-29T06:01:02.252Z,85.77
2019-05-29T06:03:38.539Z,85.82
2019-05-29T06:06:14.570Z,85.75
2019-05-29T06:08:50.740Z,85.77
2019-05-29T06:11:26.683Z,85.50
2019-05-29T06:14:03.051Z,85.44
2019-05-29T06:16:39.007Z,85.50
2019-05-29T06:19:15.061Z,84.21
2019-05-29T06:21:51.286Z,80.70
2019-05-29T06:24:27.293Z,79.36
2019-05-29T06:27:03.340Z,79.31
2019-05-29T06:29:39.455Z,79.51
2019-05-29T06:32:15.681Z,77.07
2019-05-29T06:34:51.734Z,77.70
2019-05-29T06:37:27.900Z,78.41
2019-05-29T06:40:04.977Z,79.12
2019-05-29T06:42:41.959Z,79.03
2019-05-29T06:45:21.297Z,79.04
2019-05-29T06:47:57.757Z,79.26
2019-05-29T06:50:35.293Z,79.75
2019-05-29T06:53:11.403Z,79.61
2019-05-29T06:55:52.940Z,79.84
2019-05-29T06:58:25.277Z,80.05
2019-05-29T07:01:01.218Z,80.34
2019-05-29T07:03:37.678Z,80.13
2019-05-29T07:06:13.849Z,79.70
2019-05-29T07:08:50.941Z,77.80
2019-05-29T07:11:27.102Z,78.92
2019-05-29T07:14:03.269Z,78.41
2019-05-29T07:16:45.329Z,78.43
2019-05-29T07:19:26.593Z,77.89
2019-05-29T07:21:55.023Z,77.87
2019-05-29T07:24:31.382Z,76.79
2019-05-29T07:27:12.728Z,76.86
2019-05-29T07:29:45.260Z,75.53
2019-05-29T07:32:21.344Z,74.90
2019-05-29T07:35:03.594Z,75.50
2019-05-29T07:37:37.867Z,74.19
2019-05-29T07:40:14.187Z,74.68
2019-05-29T07:42:56.097Z,74.46
2019-05-29T07:45:28.159Z,75.32
2019-05-29T07:48:04.526Z,75.04
2019-05-29T07:50:40.474Z,73.97
2019-05-29T07:53:16.730Z,74.24
2019-05-29T07:55:52.804Z,73.38
2019-05-29T07:58:29.070Z,73.36
2019-05-29T08:01:13.229Z,73.15
2019-05-29T08:03:43.507Z,72.84
2019-05-29T08:06:19.787Z,71.82
2019-05-29T08:08:55.675Z,72.11
2019-05-29T08:11:31.814Z,72.08
2019-05-29T08:14:07.965Z,70.98
2019-05-29T08:16:44.090Z,69.57
2019-05-29T08:19:20.401Z,69.95
2019-05-29T08:21:57.186Z,70.28
2019-05-29T08:24:33.240Z,69.38
2019-05-29T08:27:09.398Z,69.37
2019-05-29T08:29:47.013Z,68.90
2019-05-29T08:32:22.986Z,67.21
2019-05-29T08:34:59.114Z,66.97
2019-05-29T08:37:35.177Z,66.25
2019-05-29T08:40:11.635Z,66.56
2019-05-29T08:42:49.434Z,65.81
2019-05-29T08:45:26.518Z,66.07
2019-05-29T08:48:02.462Z,65.78
2019-05-29T08:50:38.442Z,64.69
2019-05-29T08:53:14.695Z,66.28
2019-05-29T08:55:50.792Z,65.21
2019-05-29T08:58:27.023Z,62.36
2019-05-29T09:01:02.980Z,64.18
2019-05-29T09:03:39.137Z,63.31
2019-05-29T09:06:15.189Z,65.04
2019-05-29T09:08:54.009Z,62.88
2019-05-29T09:11:29.044Z,65.88
2019-05-29T09:14:05.509Z,64.43
2019-05-29T09:16:41.587Z,60.14
2019-05-29T09:19:18.897Z,62.38
2019-05-29T09:21:55.466Z,63.76
2019-05-29T09:24:31.588Z,62.32
2019-05-29T09:27:07.761Z,62.61
2019-05-29T09:29:43.863Z,62.54
2019-05-29T09:32:45.549Z,63.33
2019-05-29T09:34:57.685Z,65.25
2019-05-29T09:37:33.785Z,65.36
2019-05-29T09:40:20.994Z,63.33
2019-05-29T09:42:57.122Z,63.38
2019-05-29T09:45:33.183Z,62.32
2019-05-29T09:48:09.502Z,62.13
2019-05-29T09:50:49.966Z,62.56
2019-05-29T09:53:23.502Z,59.33
2019-05-29T09:56:00.892Z,59.03
2019-05-29T09:58:37.049Z,60.20
2019-05-29T10:01:22.742Z,59.60
2019-05-29T10:03:50.806Z,61.56
2019-05-29T10:06:26.762Z,59.80
2019-05-29T10:09:03.742Z,60.71
2019-05-29T10:11:39.999Z,59.83
2019-05-29T10:14:16.382Z,59.43
2019-05-29T10:16:52.338Z,59.18
2019-05-29T10:19:28.378Z,60.59
2019-05-29T10:22:05.707Z,58.29
2019-05-29T10:24:41.829Z,57.24
2019-05-29T10:27:17.783Z,59.23
2019-05-29T10:29:54.329Z,58.11
2019-05-29T10:32:30.422Z,60.04
2019-05-29T10:35:07.373Z,60.35
2019-05-29T10:37:44.527Z,60.33
2019-05-29T10:40:20.858Z,59.06
2019-05-29T10:42:56.909Z,59.91
2019-05-29T10:45:32.975Z,58.37
2019-05-29T10:48:09.041Z,56.68
2019-05-29T10:50:48.833Z,59.47
2019-05-29T10:53:32.008Z,56.04
2019-05-29T10:56:08.158Z,55.67
2019-05-29T10:58:49.714Z,56.03
2019-05-29T11:01:21.927Z,56.45
2019-05-29T11:03:57.985Z,56.68
2019-05-29T11:06:40.184Z,58.13
2019-05-29T11:09:13.363Z,56.84
2019-05-29T11:11:50.668Z,56.76
2019-05-29T11:14:26.980Z,55.18
2019-05-29T11:17:02.973Z,55.10
2019-05-29T11:19:39.038Z,56.68
2019-05-29T11:22:25.647Z,55.45
2019-05-29T11:24:54.080Z,57.12
2019-05-29T11:27:30.297Z,56.16
2019-05-29T11:30:08.960Z,55.71
2019-05-29T11:32:47.638Z,53.66
2019-05-29T11:35:23.184Z,55.22
2019-05-29T11:37:59.548Z,56.94
2019-05-29T11:40:36.032Z,56.97
2019-05-29T11:43:12.639Z,54.16
2019-05-29T11:45:48.745Z,54.86
2019-05-29T11:48:24.795Z,54.98
2019-05-29T11:51:00.850Z,54.24
2019-05-29T11:53:37.945Z,53.71
2019-05-29T11:56:13.889Z,54.14
2019-05-29T11:58:50.756Z,54.22
2019-05-29T12:01:27.037Z,54.17
2019-05-29T12:04:22.973Z,52.58
2019-05-29T12:06:42.445Z,52.15
2019-05-29T12:09:31.893Z,52.50
2019-05-29T12:11:57.956Z,54.21
2019-05-29T12:14:34.098Z,55.32
2019-05-29T12:17:10.154Z,52.56
2019-05-29T12:19:46.212Z,53.08
2019-05-29T12:22:22.158Z,52.48
2019-05-29T12:24:58.638Z,52.66
2019-05-29T12:27:34.814Z,50.75
2019-05-29T12:30:12.699Z,49.41
2019-05-29T12:32:48.750Z,51.25
2019-05-29T12:35:25.737Z,51.81
2019-05-29T12:38:03.548Z,51.75
2019-05-29T12:40:40.058Z,51.37
2019-05-29T12:43:26.680Z,50.18
2019-05-29T12:45:55.644Z,50.57
2019-05-29T12:48:31.768Z,50.83
2019-05-29T12:51:07.816Z,49.18
2019-05-29T12:53:43.885Z,50.70
2019-05-29T12:56:20.052Z,48.33
2019-05-29T12:58:56.135Z,48.00
2019-05-29T13:01:32.581Z,48.16
2019-05-29T13:04:08.840Z,47.83
2019-05-29T13:06:44.783Z,50.54
2019-05-29T13:09:20.655Z,48.13
2019-05-29T13:11:58.468Z,48.35
2019-05-29T13:14:34.545Z,47.62
2019-05-29T13:17:10.654Z,49.49
2019-05-29T13:19:46.716Z,49.40
2019-05-29T13:22:22.792Z,49.15
2019-05-29T13:24:59.411Z,49.03
2019-05-29T13:27:35.405Z,49.66
2019-05-29T13:30:16.073Z,49.87
2019-05-29T13:32:52.150Z,48.31
2019-05-29T13:35:28.300Z,46.46
2019-05-29T13:38:03.443Z,48.30
2019-05-29T13:40:38.461Z,47.40
2019-05-29T13:43:15.819Z,49.21
2019-05-29T13:45:50.326Z,49.41
2019-05-29T13:48:25.411Z,49.69
2019-05-29T13:51:01.684Z,51.17
2019-05-29T13:53:36.926Z,49.75
2019-05-29T13:56:12.154Z,48.08
2019-05-29T13:58:47.186Z,48.03
2019-05-29T14:01:22.675Z,47.39
2019-05-29T14:03:58.183Z,48.21
2019-05-29T14:06:33.336Z,49.64
2019-05-29T14:09:10.102Z,45.51
2019-05-29T14:11:45.228Z,47.10
2019-05-29T14:14:20.946Z,46.69
2019-05-29T14:16:56.183Z,46.38
2019-05-29T14:19:32.599Z,49.09
2019-05-29T14:22:09.113Z,48.98
2019-05-29T14:24:44.501Z,48.12
2019-05-29T14:27:19.947Z,48.12
2019-05-29T14:29:54.990Z,46.92
2019-05-29T14:32:30.217Z,47.78
2019-05-29T14:35:07.736Z,47.43
2019-05-29T14:37:43.469Z,47.21
2019-05-29T14:40:18.578Z,48.19
2019-05-29T14:42:53.639Z,49.02
2019-05-29T14:45:28.880Z,50.80
2019-05-29T14:48:04.038Z,49.27
2019-05-29T14:50:40.081Z,48.26
2019-05-29T14:53:15.120Z,48.74
2019-05-29T14:55:49.999Z,49.36
2019-05-29T14:58:25.304Z,49.85
2019-05-29T15:01:00.319Z,50.64
2019-05-29T15:03:36.487Z,50.14
2019-05-29T15:06:11.992Z,50.15
2019-05-29T15:08:47.252Z,49.29
2019-05-29T15:11:22.193Z,48.33
2019-05-29T15:13:57.334Z,48.22
2019-05-29T15:18:32.786Z,48.81
2019-05-29T15:21:09.100Z,49.83
2019-05-29T15:23:46.211Z,51.00
2019-05-29T15:26:22.260Z,49.48
2019-05-29T15:28:58.203Z,49.54
2019-05-29T15:31:34.109Z,48.83
2019-05-29T15:34:10.320Z,49.32
2019-05-29T15:36:46.255Z,49.45
2019-05-29T15:39:22.151Z,50.31
2019-05-29T15:41:58.106Z,51.21
2019-05-29T15:44:33.976Z,49.92
2019-05-29T15:47:10.937Z,49.37
2019-05-29T15:49:46.881Z,49.07
2019-05-29T15:52:22.751Z,50.59
2019-05-29T15:54:58.863Z,51.62
2019-05-29T15:57:34.704Z,52.00
2019-05-29T16:00:15.607Z,51.37
2019-05-29T16:02:51.777Z,49.74
2019-05-29T16:05:27.700Z,50.30
2019-05-29T16:08:03.700Z,49.12
2019-05-29T16:10:40.701Z,49.63
2019-05-29T16:13:17.295Z,50.50
2019-05-29T16:15:53.309Z,50.93
2019-05-29T16:18:29.822Z,50.91
2019-05-29T16:21:05.876Z,51.47
2019-05-29T16:23:42.142Z,50.63
2019-05-29T16:26:19.747Z,51.78
2019-05-29T16:28:55.597Z,51.95
2019-05-29T16:31:31.562Z,52.28
2019-05-29T16:34:07.766Z,51.75
2019-05-29T16:36:43.774Z,51.29
2019-05-29T16:39:21.447Z,51.93
2019-05-29T16:41:58.639Z,51.45
2019-05-29T16:44:34.515Z,50.34
2019-05-29T16:47:10.415Z,50.47
2019-05-29T16:49:46.309Z,50.26
2019-05-29T16:52:22.945Z,51.30
2019-05-29T16:54:58.921Z,52.19
2019-05-29T16:57:34.769Z,52.30
2019-05-29T17:00:13.562Z,51.41
2019-05-29T17:02:50.397Z,51.31
2019-05-29T17:05:26.286Z,51.46
2019-05-29T17:08:02.168Z,52.45
2019-05-29T17:10:38.337Z,50.05
2019-05-29T17:13:14.704Z,49.89
2019-05-29T17:15:50.689Z,47.35
2019-05-29T17:18:26.687Z,48.09
2019-05-29T17:21:02.559Z,48.96
2019-05-29T17:23:39.021Z,49.42
2019-05-29T17:26:14.979Z,49.65
2019-05-29T17:28:50.912Z,49.18
2019-05-29T17:31:26.804Z,50.18
2019-05-29T17:34:02.805Z,49.42
2019-05-29T17:36:38.632Z,49.69
2019-05-29T17:39:15.206Z,49.96
2019-05-29T17:41:51.476Z,51.25
2019-05-29T17:44:27.375Z,50.81
2019-05-29T17:47:03.646Z,51.85
2019-05-29T17:49:39.722Z,51.98
2019-05-29T17:52:15.762Z,51.47
2019-05-29T17:54:51.732Z,52.78
2019-05-29T17:57:27.589Z,52.44
2019-05-29T18:00:05.081Z,52.51
2019-05-29T18:02:52.066Z,52.95
2019-05-29T18:05:20.675Z,53.67
2019-05-29T18:07:56.588Z,53.51
2019-05-29T18:10:32.486Z,53.72
2019-05-29T18:13:08.493Z,53.98
2019-05-29T18:15:45.381Z,54.66
2019-05-29T18:18:23.673Z,54.57
2019-05-29T18:20:59.640Z,55.29
2019-05-29T18:23:35.706Z,55.89
2019-05-29T18:26:11.722Z,56.46
2019-05-29T18:28:47.742Z,56.82
2019-05-29T18:31:24.432Z,57.19
2019-05-29T18:34:02.030Z,57.75
2019-05-29T18:36:37.865Z,58.19
2019-05-29T18:39:14.723Z,58.75
2019-05-29T18:41:50.668Z,59.27
2019-05-29T18:44:26.933Z,59.78
2019-05-29T18:47:03.858Z,60.53
2019-05-29T18:49:39.761Z,60.75
2019-05-29T18:52:15.805Z,60.94
2019-05-29T18:54:51.760Z,61.36
2019-05-29T18:57:27.684Z,61.64
2019-05-29T19:00:04.913Z,61.89
2019-05-29T19:02:41.885Z,62.20
2019-05-29T19:05:18.211Z,62.53
2019-05-29T19:07:54.034Z,62.80
2019-05-29T19:10:29.900Z,62.83
2019-05-29T19:13:05.843Z,63.09
2019-05-29T19:15:41.717Z,62.98
2019-05-29T19:18:17.553Z,63.33
2019-05-29T19:20:53.435Z,63.62
2019-05-29T19:23:30.715Z,63.69
2019-05-29T19:26:07.031Z,63.92
2019-05-29T19:28:43.781Z,64.15
2019-05-29T19:31:19.709Z,64.43
2019-05-29T19:33:55.756Z,64.94
2019-05-29T19:36:31.913Z,65.27
2019-05-29T19:39:08.621Z,65.86
2019-05-29T19:41:44.676Z,66.15
2019-05-29T19:44:20.665Z,66.47
2019-05-29T19:46:56.550Z,66.75
2019-05-29T19:49:33.014Z,67.32
2019-05-29T19:52:08.955Z,67.45
2019-05-29T19:54:44.871Z,68.02
2019-05-29T19:57:21.798Z,68.14
2019-05-29T19:59:57.839Z,68.59
2019-05-29T20:02:34.679Z,68.95
2019-05-29T20:05:11.226Z,68.81
2019-05-29T20:07:47.153Z,69.03
2019-05-29T20:10:23.392Z,69.30
2019-05-29T20:12:59.489Z,69.66
2019-05-29T20:15:36.083Z,69.65
2019-05-29T20:18:12.086Z,69.71
2019-05-29T20:20:47.978Z,69.96
2019-05-29T20:23:23.923Z,70.01
2019-05-29T20:25:59.857Z,70.36
2019-05-29T20:28:36.364Z,70.42
2019-05-29T20:31:12.366Z,70.73
2019-05-29T20:33:48.403Z,70.77
2019-05-29T20:36:24.297Z,70.87
2019-05-29T20:39:00.217Z,71.03
2019-05-29T20:41:39.112Z,71.21
2019-05-29T20:44:13.937Z,71.42
2019-05-29T20:46:49.948Z,71.89
2019-05-29T20:49:25.823Z,72.36
2019-05-29T20:52:01.819Z,72.61
2019-05-29T20:54:37.780Z,72.70
2019-05-29T20:57:13.774Z,72.92
2019-05-29T20:59:49.736Z,73.39
2019-05-29T21:02:25.718Z,73.28
2019-05-29T21:05:01.596Z,73.40
2019-05-29T21:07:38.822Z,74.26
2019-05-29T21:10:16.250Z,74.46
2019-05-29T21:12:52.225Z,74.65
2019-05-29T21:15:28.183Z,74.69
2019-05-29T21:18:04.161Z,75.17
2019-05-29T21:20:40.489Z,74.99
2019-05-29T21:23:16.403Z,75.06
2019-05-29T21:25:52.287Z,75.06
2019-05-29T21:28:40.024Z,75.09
2019-05-29T21:31:05.952Z,75.38
2019-05-29T21:33:45.067Z,75.33
2019-05-29T21:36:19.529Z,75.44
2019-05-29T21:38:55.498Z,75.86
2019-05-29T21:41:32.730Z,75.89
2019-05-29T21:44:08.683Z,76.19
2019-05-29T21:46:45.153Z,76.28
2019-05-29T21:49:21.121Z,76.63
2019-05-29T21:51:57.095Z,76.66
2019-05-29T21:54:33.021Z,76.85
2019-05-29T21:57:08.905Z,77.01
2019-05-29T21:59:45.916Z,77.09
2019-05-29T22:02:22.032Z,77.79
2019-05-29T22:04:58.023Z,77.99
2019-05-29T22:07:34.069Z,78.12
2019-05-29T22:10:10.450Z,78.22
2019-05-29T22:12:46.711Z,78.87
2019-05-29T22:15:22.612Z,78.84
2019-05-29T22:17:59.180Z,78.74
2019-05-29T22:20:35.590Z,78.45
2019-05-29T22:23:11.533Z,78.57
2019-05-29T22:25:47.505Z,78.57
2019-05-29T22:28:23.960Z,78.52
2019-05-29T22:30:59.917Z,78.41
2019-05-29T22:33:36.275Z,78.29
2019-05-29T22:36:12.251Z,78.29
2019-05-29T22:38:48.207Z,78.16
2019-05-29T22:41:24.157Z,78.20
2019-05-29T22:44:00.219Z,77.96
2019-05-29T22:46:36.182Z,77.80
2019-05-29T22:49:12.610Z,77.76
2019-05-29T22:51:48.495Z,77.71
2019-05-29T22:54:24.439Z,77.64
2019-05-29T22:57:02.124Z,77.70
2019-05-29T22:59:38.315Z,77.54
2019-05-29T23:02:14.271Z,77.60
2019-05-29T23:04:50.229Z,77.81
2019-05-29T23:07:26.439Z,77.95
2019-05-29T23:10:02.667Z,77.85
2019-05-29T23:12:39.934Z,77.91
2019-05-29T23:15:16.348Z,78.12
2019-05-29T23:17:52.466Z,78.13
2019-05-29T23:20:28.423Z,78.21
2019-05-29T23:23:04.577Z,78.28
2019-05-29T23:25:40.523Z,78.22
2019-05-29T23:28:16.587Z,78.22
2019-05-29T23:30:52.816Z,78.27
2019-05-29T23:33:28.919Z,78.33
2019-05-29T23:36:04.980Z,78.49
2019-05-29T23:38:40.930Z,78.42
2019-05-29T23:41:16.901Z,78.35
2019-05-29T23:43:53.671Z,78.46
2019-05-29T23:46:29.628Z,78.38
2019-05-29T23:49:05.862Z,78.46
2019-05-29T23:51:41.860Z,78.45
2019-05-29T23:54:17.791Z,78.53
2019-05-29T23:56:54.073Z,79.03
2019-05-29T23:59:30.031Z,79.14
